sensor_id;sensor_type;location;lat;lon;timestamp;pressure;altitude;pressure_sealevel;temperature;humidity
23996;BME280;12207;50.076;8.848;2022-11-11T00:00:33;101600.50;;;5.76;100.00
23996;BME280;12207;50.076;8.848;2022-11-11T00:02:59;101596.03;;;5.73;100.00
23996;BME280;12207;50.076;8.848;2022-11-11T00:05:26;101599.78;;;5.68;100.00
23996;BME280;12207;50.076;8.848;2022-11-11T00:07:53;101595.91;;;5.71;100.00
23996;BME280;12207;50.076;8.848;2022-11-11T00:10:25;101605.47;;;5.65;100.00
23996;BME280;12207;50.076;8.848;2022-11-11T00:12:51;101601.28;;;5.66;100.00
23996;BME280;12207;50.076;8.848;2022-11-11T00:15:18;101601.91;;;5.63;100.00
23996;BME280;12207;50.076;8.848;2022-11-11T00:17:45;101600.72;;;5.60;100.00
23996;BME280;12207;50.076;8.848;2022-11-11T00:20:30;101599.97;;;5.61;100.00
23996;BME280;12207;50.076;8.848;2022-11-11T00:23:22;101598.19;;;5.60;100.00
23996;BME280;12207;50.076;8.848;2022-11-11T00:26:07;101599.97;;;5.61;100.00
23996;BME280;12207;50.076;8.848;2022-11-11T00:28:34;101599.06;;;5.60;100.00
23996;BME280;12207;50.076;8.848;2022-11-11T00:31:11;101599.50;;;5.65;100.00
23996;BME280;12207;50.076;8.848;2022-11-11T00:33:38;101617.22;;;5.65;100.00
23996;BME280;12207;50.076;8.848;2022-11-11T00:36:05;101616.81;;;5.60;100.00
23996;BME280;12207;50.076;8.848;2022-11-11T00:38:32;101621.28;;;5.63;100.00
23996;BME280;12207;50.076;8.848;2022-11-11T00:41:14;101615.75;;;5.58;100.00
23996;BME280;12207;50.076;8.848;2022-11-11T00:43:41;101612.06;;;5.55;100.00
23996;BME280;12207;50.076;8.848;2022-11-11T00:46:08;101610.28;;;5.54;100.00
23996;BME280;12207;50.076;8.848;2022-11-11T00:48:53;101608.91;;;5.57;100.00
23996;BME280;12207;50.076;8.848;2022-11-11T00:51:38;101613.50;;;5.61;100.00
23996;BME280;12207;50.076;8.848;2022-11-11T00:54:05;101621.72;;;5.59;100.00
23996;BME280;12207;50.076;8.848;2022-11-11T00:56:32;101625.16;;;5.59;100.00
23996;BME280;12207;50.076;8.848;2022-11-11T00:58:58;101623.66;;;5.53;100.00
23996;BME280;12207;50.076;8.848;2022-11-11T01:01:25;101619.84;;;5.47;100.00
23996;BME280;12207;50.076;8.848;2022-11-11T01:03:51;101616.41;;;5.38;100.00
23996;BME280;12207;50.076;8.848;2022-11-11T01:06:18;101619.69;;;5.37;100.00
23996;BME280;12207;50.076;8.848;2022-11-11T01:08:44;101619.69;;;5.37;100.00
23996;BME280;12207;50.076;8.848;2022-11-11T01:11:15;101622.22;;;5.37;100.00
23996;BME280;12207;50.076;8.848;2022-11-11T01:13:42;101624.75;;;5.37;100.00
23996;BME280;12207;50.076;8.848;2022-11-11T01:16:27;101617.06;;;5.27;100.00
23996;BME280;12207;50.076;8.848;2022-11-11T01:18:53;101609.16;;;5.33;100.00
23996;BME280;12207;50.076;8.848;2022-11-11T01:21:24;101593.69;;;5.30;100.00
23996;BME280;12207;50.076;8.848;2022-11-11T01:23:51;101603.81;;;5.21;100.00
23996;BME280;12207;50.076;8.848;2022-11-11T01:26:19;101605.13;;;5.26;100.00
23996;BME280;12207;50.076;8.848;2022-11-11T01:28:50;101606.78;;;5.25;100.00
23996;BME280;12207;50.076;8.848;2022-11-11T01:31:17;101606.03;;;5.27;100.00
23996;BME280;12207;50.076;8.848;2022-11-11T01:33:44;101607.81;;;5.28;100.00
23996;BME280;12207;50.076;8.848;2022-11-11T01:36:12;101596.81;;;5.18;100.00
23996;BME280;12207;50.076;8.848;2022-11-11T01:38:39;101601.00;;;5.18;100.00
23996;BME280;12207;50.076;8.848;2022-11-11T01:41:06;101598.59;;;5.11;100.00
23996;BME280;12207;50.076;8.848;2022-11-11T01:43:51;101609.91;;;5.14;100.00
23996;BME280;12207;50.076;8.848;2022-11-11T01:46:24;101612.13;;;5.20;100.00
23996;BME280;12207;50.076;8.848;2022-11-11T01:48:53;101603.06;;;5.22;100.00
23996;BME280;12207;50.076;8.848;2022-11-11T01:51:50;101594.59;;;5.21;100.00
23996;BME280;12207;50.076;8.848;2022-11-11T01:54:23;101601.00;;;5.18;100.00
23996;BME280;12207;50.076;8.848;2022-11-11T01:56:53;101598.31;;;5.08;100.00
23996;BME280;12207;50.076;8.848;2022-11-11T01:59:20;101602.19;;;5.04;100.00
23996;BME280;12207;50.076;8.848;2022-11-11T02:01:47;101605.91;;;5.08;100.00
23996;BME280;12207;50.076;8.848;2022-11-11T02:04:14;101616.34;;;5.02;100.00
23996;BME280;12207;50.076;8.848;2022-11-11T02:06:59;101631.38;;;5.00;100.00
23996;BME280;12207;50.076;8.848;2022-11-11T02:09:28;101617.09;;;5.01;100.00
23996;BME280;12207;50.076;8.848;2022-11-11T02:11:55;101619.16;;;5.05;100.00
23996;BME280;12207;50.076;8.848;2022-11-11T02:14:44;101601.91;;;5.10;100.00
23996;BME280;12207;50.076;8.848;2022-11-11T02:17:13;101608.00;;;5.12;100.00
23996;BME280;12207;50.076;8.848;2022-11-11T02:19:45;101604.56;;;5.11;100.00
23996;BME280;12207;50.076;8.848;2022-11-11T02:22:19;101595.34;;;5.12;100.00
23996;BME280;12207;50.076;8.848;2022-11-11T02:24:48;101586.53;;;5.17;100.00
23996;BME280;12207;50.076;8.848;2022-11-11T02:27:16;101576.28;;;5.15;100.00
23996;BME280;12207;50.076;8.848;2022-11-11T02:29:45;101579.41;;;5.13;100.00
23996;BME280;12207;50.076;8.848;2022-11-11T02:32:12;101589.53;;;5.13;100.00
23996;BME280;12207;50.076;8.848;2022-11-11T02:34:39;101592.81;;;5.12;100.00
23996;BME280;12207;50.076;8.848;2022-11-11T02:37:05;101603.84;;;5.03;100.00
23996;BME280;12207;50.076;8.848;2022-11-11T02:39:34;101602.66;;;5.00;100.00
23996;BME280;12207;50.076;8.848;2022-11-11T02:42:03;101616.34;;;4.93;100.00
23996;BME280;12207;50.076;8.848;2022-11-11T02:44:35;101624.69;;;4.92;100.00
23996;BME280;12207;50.076;8.848;2022-11-11T02:47:03;101630.63;;;5.01;100.00
23996;BME280;12207;50.076;8.848;2022-11-11T02:49:30;101628.09;;;5.01;100.00
23996;BME280;12207;50.076;8.848;2022-11-11T02:51:56;101625.88;;;5.05;100.00
23996;BME280;12207;50.076;8.848;2022-11-11T02:54:23;101627.50;;;5.04;100.00
23996;BME280;12207;50.076;8.848;2022-11-11T02:56:49;101637.16;;;4.99;100.00
23996;BME280;12207;50.076;8.848;2022-11-11T02:59:35;101642.38;;;5.01;100.00
23996;BME280;12207;50.076;8.848;2022-11-11T03:02:02;101641.94;;;5.05;100.00
23996;BME280;12207;50.076;8.848;2022-11-11T03:04:28;101636.84;;;5.14;100.00
23996;BME280;12207;50.076;8.848;2022-11-11T03:06:55;101640.16;;;5.13;100.00
23996;BME280;12207;50.076;8.848;2022-11-11T03:09:21;101643.16;;;5.00;100.00
23996;BME280;12207;50.076;8.848;2022-11-11T03:11:48;101641.94;;;4.96;100.00
23996;BME280;12207;50.076;8.848;2022-11-11T03:14:14;101649.22;;;4.93;100.00
23996;BME280;12207;50.076;8.848;2022-11-11T03:16:41;101653.09;;;4.90;100.00
23996;BME280;12207;50.076;8.848;2022-11-11T03:19:26;101645.38;;;4.79;100.00
23996;BME280;12207;50.076;8.848;2022-11-11T03:21:52;101648.91;;;4.73;100.00
23996;BME280;12207;50.076;8.848;2022-11-11T03:24:21;101653.84;;;4.80;100.00
23996;BME280;12207;50.076;8.848;2022-11-11T03:26:47;101652.50;;;4.84;100.00
23996;BME280;12207;50.076;8.848;2022-11-11T03:29:13;101654.44;;;4.86;100.00
23996;BME280;12207;50.076;8.848;2022-11-11T03:31:40;101654.28;;;4.85;100.00
23996;BME280;12207;50.076;8.848;2022-11-11T03:34:06;101660.97;;;4.75;100.00
23996;BME280;12207;50.076;8.848;2022-11-11T03:36:45;101663.38;;;4.74;100.00
23996;BME280;12207;50.076;8.848;2022-11-11T03:39:30;101666.78;;;4.66;100.00
23996;BME280;12207;50.076;8.848;2022-11-11T03:41:57;101666.03;;;4.67;100.00
23996;BME280;12207;50.076;8.848;2022-11-11T03:44:23;101666.03;;;4.75;100.00
23996;BME280;12207;50.076;8.848;2022-11-11T03:46:50;101668.72;;;4.68;100.00
23996;BME280;12207;50.076;8.848;2022-11-11T03:49:17;101673.00;;;4.61;100.00
23996;BME280;12207;50.076;8.848;2022-11-11T03:51:44;101670.63;;;4.53;100.00
23996;BME280;12207;50.076;8.848;2022-11-11T03:54:10;101671.66;;;4.47;100.00
23996;BME280;12207;50.076;8.848;2022-11-11T03:56:37;101669.56;;;4.43;100.00
23996;BME280;12207;50.076;8.848;2022-11-11T03:59:03;101670.75;;;4.38;100.00
23996;BME280;12207;50.076;8.848;2022-11-11T04:01:30;101664.06;;;4.38;100.00
23996;BME280;12207;50.076;8.848;2022-11-11T04:04:15;101668.25;;;4.46;100.00
23996;BME280;12207;50.076;8.848;2022-11-11T04:07:00;101674.47;;;4.41;100.00
23996;BME280;12207;50.076;8.848;2022-11-11T04:09:45;101685.16;;;4.30;100.00
23996;BME280;12207;50.076;8.848;2022-11-11T04:12:30;101686.19;;;4.23;100.00
23996;BME280;12207;50.076;8.848;2022-11-11T04:15:18;101691.25;;;4.32;100.00
23996;BME280;12207;50.076;8.848;2022-11-11T04:18:03;101687.22;;;4.34;100.00
23996;BME280;12207;50.076;8.848;2022-11-11T04:20:30;101692.59;;;4.28;100.00
23996;BME280;12207;50.076;8.848;2022-11-11T04:23:15;101696.56;;;4.18;100.00
23996;BME280;12207;50.076;8.848;2022-11-11T04:25:41;101697.47;;;4.27;100.00
23996;BME280;12207;50.076;8.848;2022-11-11T04:28:18;101699.66;;;4.15;100.00
23996;BME280;12207;50.076;8.848;2022-11-11T04:31:03;101693.72;;;4.15;100.00
23996;BME280;12207;50.076;8.848;2022-11-11T04:33:30;101689.00;;;4.26;100.00
23996;BME280;12207;50.076;8.848;2022-11-11T04:35:56;101679.50;;;4.32;100.00
23996;BME280;12207;50.076;8.848;2022-11-11T04:38:23;101675.50;;;4.34;100.00
23996;BME280;12207;50.076;8.848;2022-11-11T04:41:08;101682.66;;;4.39;100.00
23996;BME280;12207;50.076;8.848;2022-11-11T04:43:36;101683.97;;;4.35;100.00
23996;BME280;12207;50.076;8.848;2022-11-11T04:46:22;101670.59;;;4.36;100.00
23996;BME280;12207;50.076;8.848;2022-11-11T04:48:49;101674.59;;;4.34;100.00
23996;BME280;12207;50.076;8.848;2022-11-11T04:51:15;101656.78;;;4.41;100.00
23996;BME280;12207;50.076;8.848;2022-11-11T04:53:42;101655.91;;;4.41;100.00
23996;BME280;12207;50.076;8.848;2022-11-11T04:56:08;101653.69;;;4.44;100.00
23996;BME280;12207;50.076;8.848;2022-11-11T04:58:53;101652.63;;;4.42;100.00
23996;BME280;12207;50.076;8.848;2022-11-11T05:01:40;101639.53;;;4.46;100.00
23996;BME280;12207;50.076;8.848;2022-11-11T05:04:25;101649.81;;;4.56;100.00
23996;BME280;12207;50.076;8.848;2022-11-11T05:06:52;101654.44;;;4.60;100.00
23996;BME280;12207;50.076;8.848;2022-11-11T05:09:36;101659.03;;;4.47;100.00
23996;BME280;12207;50.076;8.848;2022-11-11T05:12:03;101674.34;;;4.57;100.00
23996;BME280;12207;50.076;8.848;2022-11-11T05:14:29;101677.19;;;4.60;100.00
23996;BME280;12207;50.076;8.848;2022-11-11T05:17:14;101678.34;;;4.55;100.00
23996;BME280;12207;50.076;8.848;2022-11-11T05:19:59;101683.13;;;4.61;100.00
23996;BME280;12207;50.076;8.848;2022-11-11T05:22:44;101680.19;;;4.65;100.00
23996;BME280;12207;50.076;8.848;2022-11-11T05:25:11;101679.59;;;4.76;100.00
23996;BME280;12207;50.076;8.848;2022-11-11T05:27:59;101677.66;;;4.73;100.00
23996;BME280;12207;50.076;8.848;2022-11-11T05:30:25;101679.16;;;4.80;100.00
23996;BME280;12207;50.076;8.848;2022-11-11T05:32:53;101695.66;;;4.76;100.00
23996;BME280;12207;50.076;8.848;2022-11-11T05:35:20;101692.84;;;4.82;100.00
23996;BME280;12207;50.076;8.848;2022-11-11T05:37:46;101700.25;;;4.72;100.00
23996;BME280;12207;50.076;8.848;2022-11-11T05:40:33;101700.56;;;4.75;100.00
23996;BME280;12207;50.076;8.848;2022-11-11T05:42:59;101687.19;;;4.67;100.00
23996;BME280;12207;50.076;8.848;2022-11-11T05:45:26;101688.50;;;4.72;100.00
23996;BME280;12207;50.076;8.848;2022-11-11T05:47:52;101696.81;;;4.63;100.00
23996;BME280;12207;50.076;8.848;2022-11-11T05:50:19;101695.63;;;4.59;100.00
23996;BME280;12207;50.076;8.848;2022-11-11T05:52:46;101709.91;;;4.59;100.00
23996;BME280;12207;50.076;8.848;2022-11-11T05:55:13;101707.66;;;4.53;100.00
23996;BME280;12207;50.076;8.848;2022-11-11T05:57:39;101703.50;;;4.53;100.00
23996;BME280;12207;50.076;8.848;2022-11-11T06:00:06;101714.66;;;4.55;100.00
23996;BME280;12207;50.076;8.848;2022-11-11T06:02:33;101715.66;;;4.49;100.00
23996;BME280;12207;50.076;8.848;2022-11-11T06:04:59;101719.16;;;4.58;100.00
23996;BME280;12207;50.076;8.848;2022-11-11T06:07:26;101716.16;;;4.62;100.00
23996;BME280;12207;50.076;8.848;2022-11-11T06:09:52;101717.78;;;4.53;100.00
23996;BME280;12207;50.076;8.848;2022-11-11T06:12:42;101720.75;;;4.57;100.00
23996;BME280;12207;50.076;8.848;2022-11-11T06:15:27;101716.44;;;4.56;100.00
23996;BME280;12207;50.076;8.848;2022-11-11T06:17:54;101719.84;;;4.48;100.00
23996;BME280;12207;50.076;8.848;2022-11-11T06:20:20;101718.91;;;4.39;100.00
23996;BME280;12207;50.076;8.848;2022-11-11T06:22:47;101725.72;;;4.23;100.00
23996;BME280;12207;50.076;8.848;2022-11-11T06:25:26;101742.03;;;4.18;100.00
23996;BME280;12207;50.076;8.848;2022-11-11T06:28:12;101735.75;;;4.05;100.00
23996;BME280;12207;50.076;8.848;2022-11-11T06:30:39;101738.16;;;4.13;100.00
23996;BME280;12207;50.076;8.848;2022-11-11T06:33:06;101748.50;;;4.07;100.00
23996;BME280;12207;50.076;8.848;2022-11-11T06:35:33;101746.22;;;4.17;100.00
23996;BME280;12207;50.076;8.848;2022-11-11T06:38:01;101756.00;;;4.14;100.00
23996;BME280;12207;50.076;8.848;2022-11-11T06:40:27;101747.66;;;4.15;100.00
23996;BME280;12207;50.076;8.848;2022-11-11T06:42:54;101745.41;;;4.09;100.00
23996;BME280;12207;50.076;8.848;2022-11-11T06:45:20;101749.88;;;4.12;100.00
23996;BME280;12207;50.076;8.848;2022-11-11T06:47:47;101751.59;;;4.29;100.00
23996;BME280;12207;50.076;8.848;2022-11-11T06:50:13;101748.50;;;4.31;100.00
23996;BME280;12207;50.076;8.848;2022-11-11T06:52:40;101753.69;;;4.33;100.00
23996;BME280;12207;50.076;8.848;2022-11-11T06:55:06;101747.50;;;4.47;100.00
23996;BME280;12207;50.076;8.848;2022-11-11T06:57:33;101748.16;;;4.62;100.00
23996;BME280;12207;50.076;8.848;2022-11-11T07:00:00;101749.16;;;4.64;100.00
23996;BME280;12207;50.076;8.848;2022-11-11T07:02:26;101750.97;;;4.65;100.00
23996;BME280;12207;50.076;8.848;2022-11-11T07:04:53;101760.50;;;4.67;100.00
23996;BME280;12207;50.076;8.848;2022-11-11T07:07:19;101752.31;;;4.70;100.00
23996;BME280;12207;50.076;8.848;2022-11-11T07:09:46;101766.16;;;4.65;100.00
23996;BME280;12207;50.076;8.848;2022-11-11T07:12:12;101760.06;;;4.71;100.00
23996;BME280;12207;50.076;8.848;2022-11-11T07:14:39;101774.75;;;4.58;100.00
23996;BME280;12207;50.076;8.848;2022-11-11T07:17:05;101777.13;;;4.56;100.00
23996;BME280;12207;50.076;8.848;2022-11-11T07:19:32;101779.09;;;4.68;100.00
23996;BME280;12207;50.076;8.848;2022-11-11T07:21:58;101780.88;;;4.69;100.00
23996;BME280;12207;50.076;8.848;2022-11-11T07:24:25;101783.91;;;4.82;100.00
23996;BME280;12207;50.076;8.848;2022-11-11T07:26:51;101788.81;;;4.89;100.00
23996;BME280;12207;50.076;8.848;2022-11-11T07:29:18;101787.66;;;4.94;100.00
23996;BME280;12207;50.076;8.848;2022-11-11T07:31:45;101791.19;;;4.96;100.00
23996;BME280;12207;50.076;8.848;2022-11-11T07:34:11;101789.88;;;5.00;100.00
23996;BME280;12207;50.076;8.848;2022-11-11T07:36:38;101777.97;;;4.99;100.00
23996;BME280;12207;50.076;8.848;2022-11-11T07:39:04;101783.66;;;5.22;100.00
23996;BME280;12207;50.076;8.848;2022-11-11T07:41:31;101783.63;;;5.14;100.00
23996;BME280;12207;50.076;8.848;2022-11-11T07:43:57;101785.13;;;5.03;100.00
23996;BME280;12207;50.076;8.848;2022-11-11T07:46:24;101791.41;;;5.24;100.00
23996;BME280;12207;50.076;8.848;2022-11-11T07:48:51;101791.41;;;5.15;100.00
23996;BME280;12207;50.076;8.848;2022-11-11T07:51:17;101793.47;;;5.28;100.00
23996;BME280;12207;50.076;8.848;2022-11-11T07:53:44;101798.25;;;5.42;100.00
23996;BME280;12207;50.076;8.848;2022-11-11T07:56:10;101801.53;;;5.41;100.00
23996;BME280;12207;50.076;8.848;2022-11-11T07:58:37;101809.28;;;5.43;100.00
23996;BME280;12207;50.076;8.848;2022-11-11T08:01:03;101808.22;;;5.49;100.00
23996;BME280;12207;50.076;8.848;2022-11-11T08:03:30;101809.28;;;5.43;100.00
23996;BME280;12207;50.076;8.848;2022-11-11T08:05:56;101814.81;;;5.47;100.00
23996;BME280;12207;50.076;8.848;2022-11-11T08:08:23;101828.34;;;5.65;100.00
23996;BME280;12207;50.076;8.848;2022-11-11T08:10:54;101832.38;;;5.63;100.00
23996;BME280;12207;50.076;8.848;2022-11-11T08:13:21;101839.66;;;5.60;100.00
23996;BME280;12207;50.076;8.848;2022-11-11T08:16:20;101832.97;;;5.78;100.00
23996;BME280;12207;50.076;8.848;2022-11-11T08:18:46;101842.03;;;5.76;100.00
23996;BME280;12207;50.076;8.848;2022-11-11T08:21:13;101848.75;;;5.76;100.00
23996;BME280;12207;50.076;8.848;2022-11-11T08:23:39;101842.31;;;5.53;100.00
23996;BME280;12207;50.076;8.848;2022-11-11T08:26:06;101850.41;;;5.75;100.00
23996;BME280;12207;50.076;8.848;2022-11-11T08:28:33;101856.94;;;5.90;100.00
23996;BME280;12207;50.076;8.848;2022-11-11T08:31:01;101849.66;;;6.02;100.00
23996;BME280;12207;50.076;8.848;2022-11-11T08:33:27;101841.00;;;6.09;100.00
23996;BME280;12207;50.076;8.848;2022-11-11T08:35:57;101849.47;;;6.18;100.00
23996;BME280;12207;50.076;8.848;2022-11-11T08:38:24;101840.94;;;6.26;100.00
23996;BME280;12207;50.076;8.848;2022-11-11T08:40:50;101835.59;;;6.23;100.00
23996;BME280;12207;50.076;8.848;2022-11-11T08:43:17;101832.84;;;6.39;100.00
23996;BME280;12207;50.076;8.848;2022-11-11T08:45:43;101834.91;;;6.52;100.00
23996;BME280;12207;50.076;8.848;2022-11-11T08:48:10;101825.81;;;6.45;100.00
23996;BME280;12207;50.076;8.848;2022-11-11T08:50:37;101826.56;;;6.44;100.00
23996;BME280;12207;50.076;8.848;2022-11-11T08:53:07;101830.78;;;6.71;100.00
23996;BME280;12207;50.076;8.848;2022-11-11T08:55:34;101837.34;;;6.69;100.00
23996;BME280;12207;50.076;8.848;2022-11-11T08:58:01;101835.22;;;6.82;100.00
23996;BME280;12207;50.076;8.848;2022-11-11T09:00:28;101833.84;;;6.86;100.00
23996;BME280;12207;50.076;8.848;2022-11-11T09:02:59;101826.53;;;6.89;100.00
23996;BME280;12207;50.076;8.848;2022-11-11T09:05:26;101825.22;;;7.12;100.00
23996;BME280;12207;50.076;8.848;2022-11-11T09:07:52;101819.38;;;7.13;100.00
23996;BME280;12207;50.076;8.848;2022-11-11T09:10:19;101832.22;;;7.14;100.00
23996;BME280;12207;50.076;8.848;2022-11-11T09:12:46;101827.03;;;7.04;100.00
23996;BME280;12207;50.076;8.848;2022-11-11T09:15:13;101826.31;;;7.05;100.00
23996;BME280;12207;50.076;8.848;2022-11-11T09:17:45;101821.69;;;7.01;100.00
23996;BME280;12207;50.076;8.848;2022-11-11T09:20:12;101827.31;;;7.07;100.00
23996;BME280;12207;50.076;8.848;2022-11-11T09:22:42;101821.34;;;7.06;100.00
23996;BME280;12207;50.076;8.848;2022-11-11T09:25:11;101833.56;;;7.11;100.00
23996;BME280;12207;50.076;8.848;2022-11-11T09:27:38;101835.88;;;7.26;100.00
23996;BME280;12207;50.076;8.848;2022-11-11T09:30:05;101831.88;;;7.39;100.00
23996;BME280;12207;50.076;8.848;2022-11-11T09:32:31;101839.63;;;7.21;100.00
23996;BME280;12207;50.076;8.848;2022-11-11T09:34:58;101840.59;;;7.32;100.00
23996;BME280;12207;50.076;8.848;2022-11-11T09:37:26;101844.38;;;7.46;100.00
23996;BME280;12207;50.076;8.848;2022-11-11T09:39:52;101847.47;;;7.52;100.00
23996;BME280;12207;50.076;8.848;2022-11-11T09:44:58;101849.25;;;7.53;100.00
23996;BME280;12207;50.076;8.848;2022-11-11T09:50:03;101845.66;;;7.70;100.00
23996;BME280;12207;50.076;8.848;2022-11-11T09:55:28;101845.31;;;7.94;100.00
23996;BME280;12207;50.076;8.848;2022-11-11T09:57:57;101850.34;;;7.84;100.00
23996;BME280;12207;50.076;8.848;2022-11-11T10:00:36;101842.84;;;7.86;100.00
23996;BME280;12207;50.076;8.848;2022-11-11T10:03:21;101839.44;;;7.85;100.00
23996;BME280;12207;50.076;8.848;2022-11-11T10:05:51;101841.31;;;7.88;100.00
23996;BME280;12207;50.076;8.848;2022-11-11T10:08:29;101838.84;;;7.79;100.00
23996;BME280;12207;50.076;8.848;2022-11-11T10:10:59;101835.38;;;7.68;100.00
23996;BME280;12207;50.076;8.848;2022-11-11T10:13:28;101837.22;;;7.61;100.00
23996;BME280;12207;50.076;8.848;2022-11-11T10:16:16;101833.50;;;7.76;100.00
23996;BME280;12207;50.076;8.848;2022-11-11T10:21:34;101830.16;;;7.67;100.00
23996;BME280;12207;50.076;8.848;2022-11-11T10:24:04;101820.28;;;7.99;100.00
23996;BME280;12207;50.076;8.848;2022-11-11T10:26:39;101819.50;;;8.19;100.00
23996;BME280;12207;50.076;8.848;2022-11-11T10:29:12;101822.56;;;8.25;100.00
23996;BME280;12207;50.076;8.848;2022-11-11T10:31:40;101819.66;;;8.31;100.00
23996;BME280;12207;50.076;8.848;2022-11-11T10:34:11;101815.56;;;8.22;100.00
23996;BME280;12207;50.076;8.848;2022-11-11T10:36:42;101826.75;;;8.25;100.00
23996;BME280;12207;50.076;8.848;2022-11-11T10:39:10;101823.94;;;8.21;100.00
23996;BME280;12207;50.076;8.848;2022-11-11T10:41:40;101827.91;;;7.99;100.00
23996;BME280;12207;50.076;8.848;2022-11-11T10:44:18;101826.00;;;8.26;100.00
23996;BME280;12207;50.076;8.848;2022-11-11T10:47:03;101811.19;;;8.40;100.00
23996;BME280;12207;50.076;8.848;2022-11-11T10:49:32;101824.38;;;8.36;100.00
23996;BME280;12207;50.076;8.848;2022-11-11T10:54:44;101825.28;;;8.37;100.00
23996;BME280;12207;50.076;8.848;2022-11-11T11:05:00;101822.31;;;8.61;100.00
23996;BME280;12207;50.076;8.848;2022-11-11T11:07:33;101816.69;;;8.55;100.00
23996;BME280;12207;50.076;8.848;2022-11-11T11:10:26;101814.66;;;8.51;100.00
23996;BME280;12207;50.076;8.848;2022-11-11T11:12:51;101822.81;;;8.57;100.00
23996;BME280;12207;50.076;8.848;2022-11-11T11:15:22;101828.38;;;8.43;100.00
23996;BME280;12207;50.076;8.848;2022-11-11T11:17:57;101819.88;;;8.53;100.00
23996;BME280;12207;50.076;8.848;2022-11-11T11:20:26;101827.28;;;8.70;100.00
23996;BME280;12207;50.076;8.848;2022-11-11T11:22:53;101830.34;;;8.76;100.00
23996;BME280;12207;50.076;8.848;2022-11-11T11:25:23;101828.69;;;8.77;100.00
23996;BME280;12207;50.076;8.848;2022-11-11T11:27:50;101821.94;;;8.67;100.00
23996;BME280;12207;50.076;8.848;2022-11-11T11:30:24;101812.84;;;8.50;100.00
23996;BME280;12207;50.076;8.848;2022-11-11T11:32:58;101821.19;;;8.78;100.00
23996;BME280;12207;50.076;8.848;2022-11-11T11:35:28;101822.72;;;8.76;100.00
23996;BME280;12207;50.076;8.848;2022-11-11T11:37:55;101815.97;;;8.77;100.00
23996;BME280;12207;50.076;8.848;2022-11-11T11:40:22;101823.22;;;8.82;100.00
23996;BME280;12207;50.076;8.848;2022-11-11T11:42:48;101823.38;;;8.84;100.00
23996;BME280;12207;50.076;8.848;2022-11-11T11:45:25;101827.69;;;8.95;100.00
23996;BME280;12207;50.076;8.848;2022-11-11T11:50:58;101819.94;;;8.83;100.00
23996;BME280;12207;50.076;8.848;2022-11-11T12:01:12;101818.44;;;9.16;100.00
23996;BME280;12207;50.076;8.848;2022-11-11T12:09:01;101812.94;;;9.32;100.00
23996;BME280;12207;50.076;8.848;2022-11-11T12:17:03;101811.41;;;9.13;100.00
23996;BME280;12207;50.076;8.848;2022-11-11T12:24:50;101802.47;;;9.49;100.00
23996;BME280;12207;50.076;8.848;2022-11-11T12:30:09;101797.19;;;9.68;100.00
23996;BME280;12207;50.076;8.848;2022-11-11T12:32:41;101804.88;;;9.58;100.00
23996;BME280;12207;50.076;8.848;2022-11-11T12:40:43;101799.66;;;9.36;100.00
23996;BME280;12207;50.076;8.848;2022-11-11T12:43:49;101790.75;;;9.31;100.00
23996;BME280;12207;50.076;8.848;2022-11-11T12:46:13;101795.66;;;9.60;100.00
23996;BME280;12207;50.076;8.848;2022-11-11T12:51:18;101795.66;;;9.70;100.00
23996;BME280;12207;50.076;8.848;2022-11-11T12:53:57;101802.50;;;9.81;100.00
23996;BME280;12207;50.076;8.848;2022-11-11T13:01:34;101807.75;;;9.73;100.00
23996;BME280;12207;50.076;8.848;2022-11-11T13:06:44;101793.59;;;9.76;100.00
23996;BME280;12207;50.076;8.848;2022-11-11T13:16:59;101779.97;;;9.66;100.00
23996;BME280;12207;50.076;8.848;2022-11-11T13:19:32;101779.63;;;9.61;100.00
23996;BME280;12207;50.076;8.848;2022-11-11T13:22:05;101786.69;;;9.75;100.00
23996;BME280;12207;50.076;8.848;2022-11-11T13:24:33;101783.06;;;9.62;100.00
23996;BME280;12207;50.076;8.848;2022-11-11T13:27:13;101787.63;;;9.66;100.00
23996;BME280;12207;50.076;8.848;2022-11-11T13:32:14;101786.59;;;9.64;100.00
23996;BME280;12207;50.076;8.848;2022-11-11T13:34:43;101783.59;;;9.47;100.00
23996;BME280;12207;50.076;8.848;2022-11-11T13:37:17;101773.94;;;9.33;100.00
23996;BME280;12207;50.076;8.848;2022-11-11T13:39:46;101768.97;;;9.34;100.00
23996;BME280;12207;50.076;8.848;2022-11-11T13:42:18;101765.13;;;9.40;100.00
23996;BME280;12207;50.076;8.848;2022-11-11T13:44:50;101769.59;;;9.22;100.00
23996;BME280;12207;50.076;8.848;2022-11-11T13:47:18;101775.72;;;9.24;100.00
23996;BME280;12207;50.076;8.848;2022-11-11T13:49:49;101768.47;;;9.28;100.00
23996;BME280;12207;50.076;8.848;2022-11-11T13:52:19;101774.97;;;9.35;100.00
23996;BME280;12207;50.076;8.848;2022-11-11T13:57:47;101770.59;;;9.44;100.00
23996;BME280;12207;50.076;8.848;2022-11-11T14:02:44;101768.00;;;9.54;100.00
23996;BME280;12207;50.076;8.848;2022-11-11T14:05:20;101761.44;;;9.36;100.00
23996;BME280;12207;50.076;8.848;2022-11-11T14:07:49;101759.38;;;9.42;100.00
23996;BME280;12207;50.076;8.848;2022-11-11T14:17:57;101755.94;;;9.42;100.00
23996;BME280;12207;50.076;8.848;2022-11-11T14:20:39;101756.09;;;9.43;100.00
23996;BME280;12207;50.076;8.848;2022-11-11T14:28:36;101753.41;;;9.42;100.00
23996;BME280;12207;50.076;8.848;2022-11-11T14:33:42;101757.22;;;9.47;100.00
23996;BME280;12207;50.076;8.848;2022-11-11T14:57:37;101746.44;;;9.19;100.00
23996;BME280;12207;50.076;8.848;2022-11-11T15:02:39;101741.22;;;9.07;100.00
23996;BME280;12207;50.076;8.848;2022-11-11T15:05:10;101738.31;;;8.92;100.00
23996;BME280;12207;50.076;8.848;2022-11-11T15:07:41;101740.34;;;8.86;100.00
23996;BME280;12207;50.076;8.848;2022-11-11T15:15:14;101742.91;;;8.65;100.00